Time;durP1;ratioP1;P1;durP2;ratioP2;P2;SDS_P1;SDS_P2;PMS_P1;PMS_P2;Temp;Humidity;BMP_temperature;BMP_pressure;BME280_temperature;BME280_humidity;BME280_pressure;Samples;Min_cycle;Max_cycle;Signal;HPM_P1;HPM_P2
2023/11/20 00:01:33;;;;;;;35.45;21.48;;;;;;;6.92;100.00;99951.56;5113349;28;20101;-43
2023/11/20 00:04:02;;;;;;;38.75;21.27;;;;;;;6.75;100.00;99952.41;5113260;28;20044;-44
2023/11/20 00:06:32;;;;;;;37.40;22.10;;;;;;;6.86;100.00;99952.75;5113017;28;20066;-45
2023/11/20 00:09:01;;;;;;;32.42;20.48;;;;;;;6.88;100.00;99958.84;5113000;28;20130;-45
2023/11/20 00:11:29;;;;;;;34.67;21.30;;;;;;;6.99;100.00;99953.00;5112975;28;20130;-42
2023/11/20 00:13:57;;;;;;;36.47;22.20;;;;;;;6.95;100.00;99955.84;5113167;28;20122;-43
2023/11/20 00:16:26;;;;;;;36.90;21.90;;;;;;;6.82;100.00;99951.16;5112705;28;20047;-43
2023/11/20 00:18:54;;;;;;;34.28;21.08;;;;;;;6.84;100.00;99974.94;5113161;28;20043;-43
2023/11/20 00:21:23;;;;;;;36.72;21.02;;;;;;;6.87;100.00;99977.47;5095051;28;20074;-42
2023/11/20 00:23:52;;;;;;;36.60;22.05;;;;;;;6.84;100.00;99982.91;5112674;28;20040;-43
2023/11/20 00:26:21;;;;;;;34.60;21.10;;;;;;;6.88;100.00;99980.03;5112503;28;20055;-44
2023/11/20 00:28:49;;;;;;;36.15;21.23;;;;;;;6.92;100.00;99974.59;5112414;28;20116;-42
2023/11/20 00:31:18;;;;;;;36.25;21.17;;;;;;;6.85;100.00;99981.97;5112568;28;20078;-42
2023/11/20 00:33:47;;;;;;;33.95;20.83;;;;;;;6.87;100.00;99986.28;5112845;28;20135;-44
2023/11/20 00:36:16;;;;;;;37.47;20.27;;;;;;;6.88;100.00;99984.50;5112677;28;20048;-43
2023/11/20 00:38:45;;;;;;;34.78;21.55;;;;;;;6.87;100.00;99994.25;5112501;28;20130;-43
2023/11/20 00:41:14;;;;;;;36.33;21.83;;;;;;;6.82;100.00;99975.03;5112512;28;20043;-41
2023/11/20 00:43:42;;;;;;;33.10;20.50;;;;;;;6.93;100.00;99976.28;5112280;28;20051;-42
2023/11/20 00:46:11;;;;;;;35.25;21.08;;;;;;;6.98;100.00;99996.34;5112498;28;20129;-42
2023/11/20 00:48:39;;;;;;;36.40;21.95;;;;;;;6.91;100.00;100018.78;5112036;28;20048;-42
2023/11/20 00:51:07;;;;;;;34.75;20.90;;;;;;;6.83;100.00;100011.22;5112629;28;20136;-43
2023/11/20 00:53:39;;;;;;;34.22;21.00;;;;;;;6.76;100.00;100009.81;5112355;28;20044;-44
2023/11/20 00:56:08;;;;;;;33.33;20.58;;;;;;;6.80;100.00;100006.06;5111980;28;20047;-43
2023/11/20 00:58:38;;;;;;;34.17;20.67;;;;;;;6.72;100.00;100002.91;5112305;28;20043;-44
2023/11/20 01:01:06;;;;;;;32.35;19.90;;;;;;;6.68;100.00;100004.03;5112347;28;20131;-43
2023/11/20 01:03:35;;;;;;;31.65;20.38;;;;;;;6.67;100.00;99997.00;5112290;28;20043;-42
2023/11/20 01:06:04;;;;;;;32.00;20.35;;;;;;;6.72;100.00;99963.16;5112238;28;20207;-44
2023/11/20 01:08:33;;;;;;;30.42;19.48;;;;;;;6.65;100.00;99940.53;5112030;28;20047;-43
2023/11/20 01:11:01;;;;;;;34.33;21.15;;;;;;;6.67;100.00;99945.78;5112074;28;20477;-42
2023/11/20 01:13:30;;;;;;;32.05;19.58;;;;;;;6.72;100.00;99944.59;5100880;28;20096;-44
2023/11/20 01:16:00;;;;;;;33.28;20.10;;;;;;;6.65;100.00;99950.28;5092010;28;20044;-43
2023/11/20 01:18:28;;;;;;;34.15;20.05;;;;;;;6.73;100.00;99948.97;5091835;28;20048;-44
2023/11/20 01:20:57;;;;;;;33.72;20.92;;;;;;;6.74;100.00;99939.22;5091611;28;20051;-43
2023/11/20 01:23:25;;;;;;;34.30;20.60;;;;;;;6.68;100.00;99951.00;5091823;28;20132;-43
2023/11/20 01:25:55;;;;;;;33.70;20.10;;;;;;;6.70;100.00;99957.09;5091939;28;20076;-45
2023/11/20 01:28:23;;;;;;;34.65;20.83;;;;;;;6.72;100.00;99960.50;5107844;28;20109;-42
2023/11/20 01:30:52;;;;;;;32.20;19.20;;;;;;;6.72;100.00;99981.72;5111959;28;20054;-42
2023/11/20 01:33:21;;;;;;;31.92;19.73;;;;;;;6.69;100.00;99973.94;5112021;28;20048;-45
2023/11/20 01:35:51;;;;;;;31.50;19.55;;;;;;;6.70;100.00;99970.34;5111766;28;20131;-43
2023/11/20 01:38:19;;;;;;;32.70;19.67;;;;;;;6.70;100.00;99959.75;5112106;28;20134;-45
2023/11/20 01:40:53;;;;;;;34.22;20.08;;;;;;;6.65;100.00;99966.19;5111875;28;20526;-43
2023/11/20 01:43:21;;;;;;;35.03;20.50;;;;;;;6.53;100.00;99965.84;5111925;28;20044;-44
2023/11/20 01:45:49;;;;;;;36.33;20.98;;;;;;;6.50;100.00;99970.44;5111867;28;20131;-42
2023/11/20 01:48:19;;;;;;;35.13;20.58;;;;;;;6.10;100.00;99964.38;5111718;28;20067;-42
2023/11/20 01:50:49;;;;;;;37.45;22.15;;;;;;;5.60;100.00;99948.97;5111924;28;20058;-42
2023/11/20 01:53:17;;;;;;;40.08;22.27;;;;;;;5.57;100.00;99948.22;5111879;28;20075;-43
2023/11/20 01:55:46;;;;;;;38.65;22.35;;;;;;;5.82;100.00;99953.31;5111854;28;20054;-43
2023/11/20 01:58:16;;;;;;;38.05;23.10;;;;;;;6.00;100.00;99949.84;5111778;28;20068;-42
2023/11/20 02:00:44;;;;;;;36.58;22.48;;;;;;;6.13;100.00;99950.97;5111584;28;20135;-43
2023/11/20 02:03:13;;;;;;;36.80;22.50;;;;;;;5.89;100.00;99955.59;5111684;28;20047;-43
2023/11/20 02:05:40;;;;;;;40.30;23.33;;;;;;;5.86;100.00;99949.56;5111898;28;20048;-44
2023/11/20 02:08:10;;;;;;;39.83;22.90;;;;;;;5.81;100.00;99956.88;5111689;28;20043;-43
2023/11/20 02:10:38;;;;;;;37.38;22.65;;;;;;;5.77;100.00;99940.25;5111403;28;20048;-43
2023/11/20 02:13:10;;;;;;;36.83;21.60;;;;;;;5.74;100.00;99940.41;5108101;27;20046;-43
2023/11/20 02:15:38;;;;;;;36.92;22.60;;;;;;;5.56;100.00;99944.72;5104101;28;20044;-43
2023/11/20 02:18:27;;;;;;;40.10;23.40;;;;;;;5.84;100.00;99946.13;5095029;28;20044;-44
2023/11/20 02:20:56;;;;;;;39.00;23.00;;;;;;;5.96;100.00;99946.47;5095055;28;20047;-42
2023/11/20 02:23:25;;;;;;;41.95;24.00;;;;;;;6.05;100.00;99949.63;5094934;28;20123;-43
2023/11/20 02:26:08;;;;;;;34.55;22.08;;;;;;;6.00;100.00;99957.78;5094517;28;20048;-43
2023/11/20 02:28:39;;;;;;;34.80;21.13;;;;;;;6.15;100.00;99951.75;5094208;28;20055;-43
2023/11/20 02:31:09;;;;;;;37.90;23.02;;;;;;;6.18;100.00;99964.88;5094562;28;20319;-42
2023/11/20 02:33:39;;;;;;;38.17;22.48;;;;;;;6.14;100.00;99973.88;5094659;28;20055;-42
2023/11/20 02:36:08;;;;;;;36.70;21.58;;;;;;;6.07;100.00;99971.59;5094545;28;20404;-43
2023/11/20 02:38:36;;;;;;;35.25;20.73;;;;;;;6.07;100.00;99964.50;5094114;28;20167;-42
2023/11/20 02:41:05;;;;;;;37.75;21.70;;;;;;;6.03;100.00;99968.22;5094571;28;20052;-43
2023/11/20 02:43:35;;;;;;;37.90;22.33;;;;;;;6.03;100.00;99962.94;5106458;28;20051;-42
2023/11/20 02:46:03;;;;;;;36.72;21.67;;;;;;;6.05;100.00;99955.78;5115003;28;20048;-43
2023/11/20 02:48:33;;;;;;;38.38;21.60;;;;;;;6.08;100.00;99958.31;5114982;28;20094;-44
2023/11/20 02:51:05;;;;;;;40.35;22.35;;;;;;;5.94;100.00;99950.13;5114487;28;20400;-42
2023/11/20 02:53:33;;;;;;;38.85;22.52;;;;;;;5.77;100.00;99950.00;5114859;28;20043;-41
2023/11/20 02:56:02;;;;;;;38.78;23.35;;;;;;;5.63;100.00;99943.53;5114580;28;20051;-43
2023/11/20 02:58:31;;;;;;;36.88;21.98;;;;;;;5.46;100.00;99946.94;5114522;28;20058;-44
2023/11/20 03:00:59;;;;;;;40.63;23.15;;;;;;;5.51;100.00;99943.25;5114437;28;20469;-43
2023/11/20 03:03:28;;;;;;;35.60;22.55;;;;;;;5.64;100.00;99958.50;5114690;28;20048;-43
2023/11/20 03:05:58;;;;;;;37.65;22.52;;;;;;;5.74;100.00;99958.94;5114313;28;20048;-43
2023/11/20 03:08:26;;;;;;;37.92;23.42;;;;;;;5.58;100.00;99950.81;5114625;28;20039;-44
2023/11/20 03:10:54;;;;;;;36.13;22.52;;;;;;;5.60;100.00;99948.97;5114464;28;20056;-44
2023/11/20 03:13:23;;;;;;;36.47;22.27;;;;;;;5.59;100.00;99941.94;5114222;28;20071;-42
2023/11/20 03:15:51;;;;;;;37.97;22.30;;;;;;;5.71;100.00;99962.59;5114410;28;20051;-43
2023/11/20 03:18:20;;;;;;;40.42;24.48;;;;;;;5.82;100.00;99953.31;5114162;28;20063;-43
2023/11/20 03:20:48;;;;;;;35.47;22.23;;;;;;;5.85;100.00;99951.38;5113998;28;20724;-43
2023/11/20 03:23:19;;;;;;;36.65;22.48;;;;;;;5.97;100.00;99952.63;5114272;28;20054;-43
2023/11/20 03:25:47;;;;;;;38.35;23.05;;;;;;;5.79;100.00;99948.13;5113210;28;20040;-44
2023/11/20 03:28:16;;;;;;;38.22;22.08;;;;;;;5.81;100.00;99951.59;5113865;28;20090;-43
2023/11/20 03:30:44;;;;;;;34.58;21.52;;;;;;;5.84;100.00;99951.44;5114154;28;20098;-43
2023/11/20 03:33:12;;;;;;;36.80;22.30;;;;;;;5.97;100.00;99942.03;5114162;28;20044;-42
2023/11/20 03:35:41;;;;;;;34.95;21.73;;;;;;;5.98;100.00;99935.78;5114004;28;20044;-41
2023/11/20 03:38:09;;;;;;;40.95;23.80;;;;;;;5.80;100.00;99934.00;5113562;28;20048;-42
2023/11/20 03:40:38;;;;;;;38.17;22.42;;;;;;;5.93;100.00;99930.72;5113813;28;20044;-43
2023/11/20 03:43:07;;;;;;;37.00;22.77;;;;;;;5.84;100.00;99922.31;5113613;28;20109;-43
2023/11/20 03:45:35;;;;;;;36.60;22.40;;;;;;;5.92;100.00;99913.13;5113492;28;20043;-43
2023/11/20 03:48:03;;;;;;;38.10;23.30;;;;;;;5.79;100.00;99900.47;5113637;28;20053;-42
2023/11/20 03:50:31;;;;;;;39.10;23.33;;;;;;;5.73;100.00;99897.22;5113515;28;20412;-41
2023/11/20 03:53:03;;;;;;;37.63;23.30;;;;;;;5.72;100.00;99892.84;5113587;28;20104;-43
2023/11/20 03:55:31;;;;;;;38.22;23.02;;;;;;;5.66;100.00;99894.91;5113387;28;20052;-43
2023/11/20 03:58:01;;;;;;;38.47;22.85;;;;;;;5.66;100.00;99890.47;5113103;28;20407;-42
2023/11/20 04:00:29;;;;;;;38.40;22.65;;;;;;;5.67;100.00;99886.03;5113311;28;20455;-41
2023/11/20 04:02:58;;;;;;;40.65;23.58;;;;;;;5.77;100.00;99881.19;5112845;28;20040;-40
2023/11/20 04:05:27;;;;;;;38.38;23.35;;;;;;;5.81;100.00;99874.84;5113195;28;20044;-41
2023/11/20 04:07:55;;;;;;;41.03;23.63;;;;;;;5.93;100.00;99872.50;5113097;28;20048;-41
2023/11/20 04:10:23;;;;;;;38.75;23.67;;;;;;;5.56;100.00;99867.16;5112619;28;20089;-40
2023/11/20 04:12:51;;;;;;;38.97;23.02;;;;;;;5.74;100.00;99871.59;5112678;28;20472;-42
2023/11/20 04:15:21;;;;;;;40.95;24.45;;;;;;;5.84;100.00;99883.47;5112638;28;20144;-42
2023/11/20 04:17:49;;;;;;;38.70;22.85;;;;;;;5.61;100.00;99876.59;5112668;28;20043;-41
2023/11/20 04:20:18;;;;;;;40.00;23.92;;;;;;;5.25;100.00;99880.91;5112732;28;20373;-40
2023/11/20 04:22:49;;;;;;;37.83;23.38;;;;;;;5.42;100.00;99886.31;5112844;28;20090;-41
2023/11/20 04:25:17;;;;;;;41.15;24.42;;;;;;;5.71;100.00;99884.97;5112405;28;20172;-41
2023/11/20 04:27:51;;;;;;;40.97;24.42;;;;;;;5.77;100.00;99887.31;5112443;28;20062;-45
2023/11/20 04:30:22;;;;;;;38.70;22.90;;;;;;;5.71;100.00;99899.06;5112709;28;20051;-41
2023/11/20 04:32:50;;;;;;;41.63;24.33;;;;;;;5.78;100.00;99890.81;5112756;28;20039;-40
2023/11/20 04:35:19;;;;;;;40.13;23.88;;;;;;;5.69;100.00;99893.00;5112024;28;20504;-41
2023/11/20 04:37:47;;;;;;;40.05;24.02;;;;;;;5.71;100.00;99898.22;5112210;28;20043;-42
2023/11/20 04:40:16;;;;;;;40.08;23.33;;;;;;;5.84;100.00;99912.59;5112435;28;20352;-41
2023/11/20 04:42:44;;;;;;;36.88;22.23;;;;;;;5.89;100.00;99917.69;5112540;28;20083;-43
2023/11/20 04:45:12;;;;;;;40.10;23.40;;;;;;;5.94;100.00;99921.00;5112455;28;20068;-41
2023/11/20 04:47:42;;;;;;;39.35;22.75;;;;;;;5.98;100.00;99919.91;5112133;28;20416;-41
2023/11/20 04:50:10;;;;;;;42.40;22.75;;;;;;;6.02;100.00;99925.00;5112186;28;20557;-43
2023/11/20 04:52:42;;;;;;;38.75;22.80;;;;;;;6.00;100.00;99915.44;5112066;28;20488;-44
2023/11/20 04:55:10;;;;;;;38.65;23.50;;;;;;;6.02;100.00;99918.84;5112191;28;20044;-42
2023/11/20 04:57:39;;;;;;;40.70;23.88;;;;;;;6.05;100.00;99918.69;5111962;28;20573;-45
2023/11/20 05:00:10;;;;;;;41.72;24.67;;;;;;;6.09;100.00;99915.00;5111825;28;20050;-43
2023/11/20 05:02:38;;;;;;;41.95;25.77;;;;;;;5.89;100.00;99909.75;5111922;28;20050;-40
2023/11/20 05:05:08;;;;;;;40.80;23.98;;;;;;;6.05;100.00;99916.06;5112168;28;20044;-41
2023/11/20 05:07:37;;;;;;;40.50;24.80;;;;;;;5.86;100.00;99904.56;5111818;28;20126;-41
2023/11/20 05:10:06;;;;;;;42.83;24.45;;;;;;;5.94;100.00;99910.41;5111981;28;20044;-43
2023/11/20 05:12:35;;;;;;;41.17;25.23;;;;;;;5.91;100.00;99910.56;5111945;28;20051;-42
2023/11/20 05:15:03;;;;;;;40.47;24.50;;;;;;;5.95;100.00;99901.53;5112169;28;20127;-41
2023/11/20 05:17:31;;;;;;;43.85;25.42;;;;;;;5.93;100.00;99896.31;5112189;28;20139;-42
2023/11/20 05:20:00;;;;;;;42.95;24.35;;;;;;;6.12;100.00;99892.81;5112313;28;20047;-41
2023/11/20 05:22:30;;;;;;;42.80;25.40;;;;;;;5.87;100.00;99887.75;5112002;28;20500;-43
2023/11/20 05:24:58;;;;;;;42.63;24.77;;;;;;;6.05;100.00;99901.97;5112169;28;20135;-45
2023/11/20 05:27:26;;;;;;;40.88;24.17;;;;;;;6.07;100.00;99890.34;5111921;28;20142;-42
2023/11/20 05:29:55;;;;;;;42.50;23.15;;;;;;;6.01;100.00;99898.59;5112248;28;20430;-41
2023/11/20 05:32:26;;;;;;;41.85;24.63;;;;;;;5.80;100.00;99896.94;5112349;28;20424;-42
2023/11/20 05:34:54;;;;;;;43.53;24.73;;;;;;;5.87;100.00;99904.50;5111986;28;20054;-43
2023/11/20 05:37:23;;;;;;;41.22;25.30;;;;;;;5.91;100.00;99906.13;5094065;28;20048;-41
2023/11/20 05:39:52;;;;;;;41.72;24.45;;;;;;;6.07;100.00;99911.53;5112023;28;20055;-43
2023/11/20 05:42:21;;;;;;;43.80;25.73;;;;;;;5.81;100.00;99899.50;5111949;28;20537;-42
2023/11/20 05:44:49;;;;;;;43.45;24.48;;;;;;;5.97;100.00;99905.81;5112116;28;20090;-42
2023/11/20 05:47:17;;;;;;;41.20;24.45;;;;;;;6.01;100.00;99902.13;5112305;28;20048;-43
2023/11/20 05:49:45;;;;;;;40.60;24.10;;;;;;;5.90;100.00;99903.53;5115758;28;20047;-43
2023/11/20 05:52:14;;;;;;;45.58;25.77;;;;;;;5.96;100.00;99919.13;5115894;28;20135;-41
2023/11/20 05:54:43;;;;;;;40.72;24.10;;;;;;;5.99;100.00;99916.38;5115971;28;20044;-43
2023/11/20 05:57:13;;;;;;;41.20;24.92;;;;;;;5.97;100.00;99920.84;5115694;28;20044;-42
2023/11/20 05:59:45;;;;;;;44.13;24.98;;;;;;;5.87;100.00;99914.22;5115820;28;20043;-43
2023/11/20 06:02:13;;;;;;;40.70;24.65;;;;;;;5.87;100.00;99914.22;5115756;28;20134;-43
2023/11/20 06:04:42;;;;;;;42.22;24.80;;;;;;;5.96;100.00;99924.44;5115630;28;20055;-42
2023/11/20 06:07:12;;;;;;;39.65;23.90;;;;;;;5.99;100.00;99916.38;5115706;28;20039;-41
2023/11/20 06:09:41;;;;;;;41.80;23.88;;;;;;;6.06;100.00;99909.81;5115260;28;20048;-45
2023/11/20 06:12:09;;;;;;;38.00;23.58;;;;;;;5.94;100.00;99913.06;5115369;28;20046;-44
2023/11/20 06:14:41;;;;;;;43.72;24.67;;;;;;;5.98;100.00;99911.97;5115337;28;20138;-42
2023/11/20 06:17:09;;;;;;;41.55;24.98;;;;;;;6.07;100.00;99915.97;5115258;28;20040;-42
2023/11/20 06:19:38;;;;;;;38.90;24.17;;;;;;;5.91;100.00;99927.31;5126464;27;20072;-43
2023/11/20 06:22:06;;;;;;;41.78;25.33;;;;;;;5.71;100.00;99922.88;5135992;27;20050;-44
2023/11/20 06:24:34;;;;;;;42.67;24.58;;;;;;;5.84;100.00;99927.63;5135514;27;20083;-44
2023/11/20 06:27:02;;;;;;;41.63;24.80;;;;;;;5.93;100.00;99928.09;5135741;27;20047;-42
2023/11/20 06:29:31;;;;;;;41.38;24.17;;;;;;;5.93;100.00;99929.88;5135700;27;20164;-44
2023/11/20 06:32:01;;;;;;;41.05;25.65;;;;;;;5.85;100.00;99934.63;5135602;27;20051;-43
2023/11/20 06:34:30;;;;;;;40.42;25.02;;;;;;;6.01;100.00;99941.81;5135729;27;20054;-45
2023/11/20 06:36:58;;;;;;;41.42;25.20;;;;;;;6.03;100.00;99947.06;5135344;27;20055;-42
2023/11/20 06:39:26;;;;;;;37.10;24.10;;;;;;;6.07;100.00;99945.09;5135329;27;20043;-43
2023/11/20 06:41:55;;;;;;;38.85;24.38;;;;;;;6.10;100.00;99951.13;5135536;27;20075;-44
2023/11/20 06:44:24;;;;;;;41.67;24.05;;;;;;;6.18;100.00;99954.28;5135042;27;20448;-43
2023/11/20 06:46:52;;;;;;;37.38;24.20;;;;;;;6.28;100.00;99963.53;5135204;27;20050;-42
2023/11/20 06:49:22;;;;;;;40.38;24.13;;;;;;;6.36;100.00;99967.56;5135159;27;20043;-42
2023/11/20 06:51:50;;;;;;;40.95;24.50;;;;;;;6.14;100.00;99965.94;5135450;27;20092;-43
2023/11/20 06:54:19;;;;;;;39.00;24.05;;;;;;;6.15;100.00;99967.66;5135222;27;20511;-42
2023/11/20 06:56:47;;;;;;;42.15;25.30;;;;;;;6.06;100.00;99968.06;5135422;27;20051;-43
2023/11/20 06:59:17;;;;;;;41.55;24.58;;;;;;;6.13;100.00;99971.31;5134978;27;20043;-41
2023/11/20 07:01:46;;;;;;;45.15;27.10;;;;;;;6.07;100.00;99964.50;5134951;27;20054;-42
2023/11/20 07:04:15;;;;;;;46.63;26.77;;;;;;;6.23;100.00;99968.16;5134958;27;20107;-42
2023/11/20 07:06:47;;;;;;;42.20;25.65;;;;;;;6.43;100.00;99967.22;5135157;27;20473;-45
2023/11/20 07:09:20;;;;;;;42.03;25.55;;;;;;;6.53;100.00;99957.03;5134709;27;20408;-42
2023/11/20 07:11:49;;;;;;;39.33;25.27;;;;;;;6.36;100.00;99959.63;5135172;27;20078;-42
2023/11/20 07:14:17;;;;;;;42.47;25.17;;;;;;;6.28;100.00;99952.94;5134859;27;20051;-43
2023/11/20 07:16:46;;;;;;;47.72;27.67;;;;;;;6.12;100.00;99941.31;5134638;27;20047;-44
2023/11/20 07:19:14;;;;;;;44.03;27.42;;;;;;;6.27;100.00;99942.38;5131409;27;20046;-41
2023/11/20 07:21:44;;;;;;;46.97;26.35;;;;;;;6.35;100.00;99936.72;5115617;27;20067;-42
2023/11/20 07:24:14;;;;;;;41.47;27.25;;;;;;;6.30;100.00;99929.88;5134636;27;20118;-43
2023/11/20 07:26:42;;;;;;;46.92;27.98;;;;;;;6.18;100.00;99932.25;5126953;27;20408;-42
2023/11/20 07:29:11;;;;;;;48.67;28.13;;;;;;;6.42;100.00;99927.56;5092951;28;20087;-42
2023/11/20 07:31:40;;;;;;;44.83;27.27;;;;;;;6.53;100.00;99933.19;5093123;28;20413;-45
2023/11/20 07:34:08;;;;;;;54.47;29.40;;;;;;;6.64;100.00;99944.13;5093354;28;20556;-41
2023/11/20 07:36:37;;;;;;;44.60;27.80;;;;;;;6.81;100.00;99946.81;5092729;28;20465;-43
2023/11/20 07:39:06;;;;;;;44.67;26.58;;;;;;;6.97;100.00;99935.44;5092649;28;20048;-43
2023/11/20 07:41:35;;;;;;;43.78;26.00;;;;;;;7.21;100.00;99939.50;5092566;28;20079;-41
2023/11/20 07:44:04;;;;;;;43.85;26.52;;;;;;;7.20;100.00;99942.22;5094574;28;20081;-42
2023/11/20 07:46:32;;;;;;;41.97;26.85;;;;;;;7.26;100.00;99937.47;5112814;28;20044;-42
2023/11/20 07:49:01;;;;;;;44.13;26.45;;;;;;;7.39;100.00;99937.69;5113167;28;20385;-43
2023/11/20 07:51:29;;;;;;;43.97;27.77;;;;;;;7.31;100.00;99942.53;5112834;28;20040;-42
2023/11/20 07:53:58;;;;;;;42.92;27.67;;;;;;;7.41;100.00;99947.28;5113031;28;20048;-43
2023/11/20 07:56:27;;;;;;;43.35;28.05;;;;;;;7.25;100.00;99945.53;5112838;28;20051;-41
2023/11/20 07:58:57;;;;;;;46.85;28.52;;;;;;;7.33;100.00;99932.69;5108522;28;20591;-42
2023/11/20 08:01:25;;;;;;;48.75;29.27;;;;;;;7.38;100.00;99923.56;5099444;28;20046;-42
2023/11/20 08:03:54;;;;;;;47.10;28.30;;;;;;;7.56;100.00;99928.84;5100640;28;20120;-42
2023/11/20 08:06:22;;;;;;;50.08;29.45;;;;;;;7.57;100.00;99938.53;5092116;28;20050;-41
2023/11/20 08:08:50;;;;;;;45.67;27.42;;;;;;;7.78;100.00;99939.19;5092028;28;20101;-40
2023/11/20 08:11:19;;;;;;;44.15;26.15;;;;;;;7.99;100.00;99944.19;5091628;28;20048;-42
2023/11/20 08:13:47;;;;;;;41.95;26.33;;;;;;;8.19;100.00;99939.56;5092112;28;20151;-42
2023/11/20 08:16:17;;;;;;;42.97;26.75;;;;;;;8.05;100.00;99943.00;5092231;28;20135;-41
2023/11/20 08:18:45;;;;;;;41.55;26.50;;;;;;;7.91;100.00;99941.09;5110232;28;20322;-43
2023/11/20 08:21:14;;;;;;;44.95;27.55;;;;;;;8.16;100.00;99937.09;5112183;28;20044;-41
2023/11/20 08:23:43;;;;;;;44.92;27.45;;;;;;;8.15;100.00;99928.28;5112779;28;20051;-41
2023/11/20 08:26:13;;;;;;;42.88;26.92;;;;;;;8.33;100.00;99921.94;5103134;28;20050;-41
2023/11/20 08:28:41;;;;;;;41.53;26.52;;;;;;;8.57;100.00;99934.81;5123284;27;20058;-42
2023/11/20 08:31:09;;;;;;;42.70;27.58;;;;;;;8.64;100.00;99935.31;5133101;27;20383;-41
2023/11/20 08:33:39;;;;;;;43.05;26.63;;;;;;;8.76;100.00;99932.81;5130577;27;20062;-41
2023/11/20 08:36:08;;;;;;;40.30;26.05;;;;;;;8.78;100.00;99938.03;5131234;27;20039;-42
2023/11/20 08:38:37;;;;;;;41.75;25.95;;;;;;;8.86;100.00;99943.75;5131363;27;20047;-40
2023/11/20 08:41:06;;;;;;;42.88;26.85;;;;;;;8.70;100.00;99941.16;5131555;27;20050;-41
2023/11/20 08:43:34;;;;;;;42.83;27.17;;;;;;;8.88;100.00;99944.56;5132306;27;20139;-43
2023/11/20 08:46:03;;;;;;;43.50;27.45;;;;;;;8.93;100.00;99936.28;5132246;27;20300;-43
2023/11/20 08:48:43;;;;;;;40.15;27.58;;;;;;;8.95;100.00;99937.91;5131977;27;20130;-43
2023/11/20 08:51:12;;;;;;;42.30;26.25;;;;;;;8.98;100.00;99935.09;5133038;27;20126;-47
2023/11/20 08:53:40;;;;;;;41.10;25.08;;;;;;;9.05;100.00;99939.09;5133487;27;20072;-42
2023/11/20 08:56:10;;;;;;;41.55;25.38;;;;;;;8.85;100.00;99944.72;5132737;27;20074;-42
2023/11/20 08:58:38;;;;;;;39.38;25.88;;;;;;;9.04;100.00;99932.06;5132438;27;20070;-43
2023/11/20 09:01:06;;;;;;;41.40;25.63;;;;;;;8.97;100.00;99930.69;5132191;27;20047;-41
2023/11/20 09:03:35;;;;;;;37.72;24.08;;;;;;;8.98;100.00;99924.47;5132186;27;20054;-43
2023/11/20 09:06:05;;;;;;;37.65;24.35;;;;;;;9.04;100.00;99924.06;5132406;27;20074;-43
2023/11/20 09:08:34;;;;;;;37.63;24.23;;;;;;;9.11;100.00;99925.44;5132166;27;20039;-43
2023/11/20 09:11:02;;;;;;;37.45;23.70;;;;;;;9.13;100.00;99928.84;5132188;27;20053;-42
2023/11/20 09:13:30;;;;;;;37.40;23.27;;;;;;;9.22;100.00;99926.59;5131995;28;20039;-42
2023/11/20 09:16:01;;;;;;;38.55;22.55;;;;;;;9.33;100.00;99932.13;5132166;28;20053;-43
2023/11/20 09:18:29;;;;;;;37.30;22.77;;;;;;;9.46;100.00;99935.78;5131867;28;20078;-43
2023/11/20 09:21:01;;;;;;;38.97;23.67;;;;;;;9.56;100.00;99925.44;5131877;28;20047;-43
2023/11/20 09:23:31;;;;;;;39.13;22.00;;;;;;;9.61;100.00;99924.19;5134340;27;20054;-44
2023/11/20 09:26:00;;;;;;;34.45;21.75;;;;;;;9.69;100.00;99916.59;5135999;27;20047;-42
2023/11/20 09:28:28;;;;;;;35.65;21.88;;;;;;;9.46;100.00;99909.16;5135798;27;20051;-41
2023/11/20 09:30:56;;;;;;;34.08;20.85;;;;;;;9.59;100.00;99922.56;5136418;27;20130;-42
2023/11/20 09:33:24;;;;;;;32.05;20.48;;;;;;;9.67;100.00;99918.50;5136303;27;20053;-44
2023/11/20 09:35:52;;;;;;;33.22;20.30;;;;;;;9.77;100.00;99913.44;5136307;27;20039;-43
2023/11/20 09:38:21;;;;;;;31.25;20.15;;;;;;;9.86;100.00;99912.88;5117580;27;20095;-41
2023/11/20 09:40:50;;;;;;;34.72;20.42;;;;;;;9.87;100.00;99908.41;5136251;27;20402;-43
2023/11/20 09:43:22;;;;;;;31.60;19.55;;;;;;;9.91;100.00;99912.56;5135946;27;20047;-41
2023/11/20 09:45:54;;;;;;;30.90;19.17;;;;;;;9.92;100.00;99900.97;5136282;27;20043;-42
2023/11/20 09:48:31;;;;;;;31.75;19.05;;;;;;;9.97;100.00;99909.53;5135966;27;20054;-43
2023/11/20 09:51:00;;;;;;;32.30;20.27;;;;;;;10.04;100.00;99895.75;5135799;27;20051;-42
2023/11/20 09:53:40;;;;;;;31.58;19.50;;;;;;;10.02;100.00;99897.63;5136155;27;20468;-41
2023/11/20 09:56:13;;;;;;;30.88;18.60;;;;;;;10.04;100.00;99894.88;5117215;27;20043;-42
2023/11/20 09:58:42;;;;;;;29.40;18.40;;;;;;;9.97;100.00;99893.56;5135754;27;20464;-44
2023/11/20 10:01:13;;;;;;;27.85;18.70;;;;;;;10.10;100.00;99882.97;5135803;27;20043;-41
2023/11/20 10:03:44;;;;;;;25.98;17.42;;;;;;;10.19;100.00;99885.88;5135853;27;20062;-43
2023/11/20 10:06:15;;;;;;;33.22;18.92;;;;;;;10.23;100.00;99883.91;5135781;27;20079;-45
2023/11/20 10:08:45;;;;;;;28.67;17.65;;;;;;;10.36;100.00;99884.00;5135644;27;20047;-43
2023/11/20 10:11:17;;;;;;;27.48;18.75;;;;;;;10.54;100.00;99888.13;5135237;27;20506;-42
2023/11/20 10:13:45;;;;;;;28.27;18.27;;;;;;;10.62;100.00;99890.28;5135417;27;20050;-43
2023/11/20 10:16:17;;;;;;;30.67;18.20;;;;;;;10.64;100.00;99878.56;5135146;27;20539;-42
2023/11/20 10:18:46;;;;;;;29.15;19.50;;;;;;;10.66;100.00;99879.31;5135452;27;20099;-42
2023/11/20 10:21:14;;;;;;;29.02;18.17;;;;;;;10.77;100.00;99874.09;5134989;27;20134;-44
2023/11/20 10:23:43;;;;;;;27.73;18.02;;;;;;;10.86;100.00;99876.16;5135200;27;20108;-42
2023/11/20 10:26:12;;;;;;;26.27;16.65;;;;;;;10.83;100.00;99868.38;5135298;27;20100;-43
2023/11/20 10:28:41;;;;;;;29.80;17.17;;;;;;;10.81;100.00;99859.63;5134763;27;20051;-43
2023/11/20 10:31:10;;;;;;;22.95;15.40;;;;;;;10.91;100.00;99859.00;5134883;27;20507;-41
2023/11/20 10:33:39;;;;;;;22.77;14.80;;;;;;;11.03;100.00;99858.16;5134417;27;20549;-43
2023/11/20 10:36:12;;;;;;;21.48;13.75;;;;;;;11.16;100.00;99848.34;5134981;27;20051;-42
2023/11/20 10:38:41;;;;;;;25.33;12.95;;;;;;;11.30;100.00;99840.25;5134700;27;20043;-43
2023/11/20 10:41:10;;;;;;;17.83;10.57;;;;;;;11.39;100.00;99842.28;5134552;27;20552;-42
2023/11/20 10:43:40;;;;;;;16.33;7.10;;;;;;;11.69;100.00;99831.22;5134613;27;20050;-42
2023/11/20 10:46:10;;;;;;;10.07;5.15;;;;;;;11.94;100.00;99830.34;5134708;27;20130;-42
2023/11/20 10:48:39;;;;;;;9.00;3.42;;;;;;;12.11;100.00;99825.59;5134727;27;20047;-43
2023/11/20 10:51:09;;;;;;;6.45;2.80;;;;;;;12.13;100.00;99831.69;5134654;27;20035;-44
2023/11/20 10:53:39;;;;;;;7.45;2.63;;;;;;;12.16;100.00;99826.97;5134612;27;20051;-43
2023/11/20 10:56:09;;;;;;;8.55;2.47;;;;;;;12.24;100.00;99821.03;5134151;27;20107;-42
2023/11/20 10:58:40;;;;;;;7.50;2.47;;;;;;;12.29;100.00;99824.25;5134415;27;20047;-42
2023/11/20 11:01:10;;;;;;;9.63;2.63;;;;;;;12.36;100.00;99825.50;5134322;27;20100;-42
2023/11/20 11:03:40;;;;;;;8.40;2.40;;;;;;;12.39;100.00;99819.91;5134416;27;20051;-41
2023/11/20 11:06:10;;;;;;;6.30;2.15;;;;;;;12.42;100.00;99825.03;5134243;27;20100;-43
2023/11/20 11:08:45;;;;;;;9.60;2.10;;;;;;;12.43;100.00;99820.53;5134089;27;20504;-42
2023/11/20 11:11:14;;;;;;;6.85;2.13;;;;;;;12.46;100.00;99813.16;5134256;27;20556;-43
2023/11/20 11:13:44;;;;;;;4.90;1.83;;;;;;;12.42;100.00;99817.00;5134734;27;20187;-43
2023/11/20 11:16:22;;;;;;;5.38;1.90;;;;;;;12.35;100.00;99813.06;5134409;27;20047;-43
2023/11/20 11:18:56;;;;;;;6.18;2.10;;;;;;;12.41;100.00;99809.94;5133966;27;20497;-43
2023/11/20 11:21:32;;;;;;;7.00;2.10;;;;;;;12.50;100.00;99813.75;5134069;27;20457;-43
2023/11/20 11:24:01;;;;;;;7.28;1.80;;;;;;;12.55;100.00;99808.94;5134018;27;20101;-42
2023/11/20 11:26:41;;;;;;;11.25;2.33;;;;;;;12.52;100.00;99818.03;5134044;27;20055;-43